sensor_id;sensor_type;location;lat;lon;timestamp;P1;durP1;ratioP1;P2;durP2;ratioP2
26977;SDS011;56314;48.088;11.642;2023-05-07T00:00:03;7.50;;;5.10;;
26977;SDS011;56314;48.088;11.642;2023-05-07T00:02:32;5.25;;;4.75;;
26977;SDS011;56314;48.088;11.642;2023-05-07T00:04:58;5.90;;;4.70;;
26977;SDS011;56314;48.088;11.642;2023-05-07T00:07:23;4.95;;;4.45;;
26977;SDS011;56314;48.088;11.642;2023-05-07T00:09:49;7.60;;;4.75;;
26977;SDS011;56314;48.088;11.642;2023-05-07T00:12:14;5.00;;;4.50;;
26977;SDS011;56314;48.088;11.642;2023-05-07T00:14:39;6.10;;;5.38;;
26977;SDS011;56314;48.088;11.642;2023-05-07T00:17:06;5.60;;;4.35;;
26977;SDS011;56314;48.088;11.642;2023-05-07T00:19:34;5.78;;;4.88;;
26977;SDS011;56314;48.088;11.642;2023-05-07T00:21:59;4.80;;;4.30;;
26977;SDS011;56314;48.088;11.642;2023-05-07T00:24:25;5.93;;;4.55;;
26977;SDS011;56314;48.088;11.642;2023-05-07T00:26:50;6.78;;;4.57;;
26977;SDS011;56314;48.088;11.642;2023-05-07T00:29:16;5.80;;;4.68;;
26977;SDS011;56314;48.088;11.642;2023-05-07T00:31:41;6.03;;;4.80;;
26977;SDS011;56314;48.088;11.642;2023-05-07T00:34:06;6.00;;;4.80;;
26977;SDS011;56314;48.088;11.642;2023-05-07T00:36:32;5.63;;;4.57;;
26977;SDS011;56314;48.088;11.642;2023-05-07T00:38:58;5.72;;;4.75;;
26977;SDS011;56314;48.088;11.642;2023-05-07T00:41:25;6.03;;;4.25;;
26977;SDS011;56314;48.088;11.642;2023-05-07T00:43:50;5.70;;;4.25;;
26977;SDS011;56314;48.088;11.642;2023-05-07T00:46:16;11.02;;;6.43;;
26977;SDS011;56314;48.088;11.642;2023-05-07T00:48:42;11.15;;;4.85;;
26977;SDS011;56314;48.088;11.642;2023-05-07T00:51:09;7.22;;;4.53;;
26977;SDS011;56314;48.088;11.642;2023-05-07T00:53:36;4.72;;;4.32;;
26977;SDS011;56314;48.088;11.642;2023-05-07T00:56:01;5.80;;;4.70;;
26977;SDS011;56314;48.088;11.642;2023-05-07T00:58:27;6.20;;;5.07;;
26977;SDS011;56314;48.088;11.642;2023-05-07T01:00:53;6.15;;;4.75;;
26977;SDS011;56314;48.088;11.642;2023-05-07T01:03:18;8.07;;;4.45;;
26977;SDS011;56314;48.088;11.642;2023-05-07T01:05:43;6.32;;;4.78;;
26977;SDS011;56314;48.088;11.642;2023-05-07T01:08:11;5.88;;;4.57;;
26977;SDS011;56314;48.088;11.642;2023-05-07T01:10:36;6.03;;;4.28;;
26977;SDS011;56314;48.088;11.642;2023-05-07T01:13:02;7.18;;;4.47;;
26977;SDS011;56314;48.088;11.642;2023-05-07T01:15:27;5.97;;;4.80;;
26977;SDS011;56314;48.088;11.642;2023-05-07T01:17:53;5.47;;;4.97;;
26977;SDS011;56314;48.088;11.642;2023-05-07T01:20:18;5.72;;;4.68;;
26977;SDS011;56314;48.088;11.642;2023-05-07T01:22:44;5.43;;;4.50;;
26977;SDS011;56314;48.088;11.642;2023-05-07T01:25:10;6.75;;;4.85;;
26977;SDS011;56314;48.088;11.642;2023-05-07T01:27:36;6.38;;;5.03;;
26977;SDS011;56314;48.088;11.642;2023-05-07T01:30:05;9.98;;;4.78;;
26977;SDS011;56314;48.088;11.642;2023-05-07T01:35:12;6.00;;;4.93;;
26977;SDS011;56314;48.088;11.642;2023-05-07T01:37:43;6.13;;;4.40;;
26977;SDS011;56314;48.088;11.642;2023-05-07T01:40:09;6.88;;;4.82;;
26977;SDS011;56314;48.088;11.642;2023-05-07T01:42:35;5.50;;;4.28;;
26977;SDS011;56314;48.088;11.642;2023-05-07T01:45:01;5.95;;;4.53;;
26977;SDS011;56314;48.088;11.642;2023-05-07T01:47:27;6.10;;;4.47;;
26977;SDS011;56314;48.088;11.642;2023-05-07T01:49:54;6.30;;;4.78;;
26977;SDS011;56314;48.088;11.642;2023-05-07T01:52:20;5.80;;;4.55;;
26977;SDS011;56314;48.088;11.642;2023-05-07T01:54:45;6.97;;;4.50;;
26977;SDS011;56314;48.088;11.642;2023-05-07T01:57:11;7.30;;;4.82;;
26977;SDS011;56314;48.088;11.642;2023-05-07T01:59:36;6.10;;;4.72;;
26977;SDS011;56314;48.088;11.642;2023-05-07T02:02:01;7.30;;;4.45;;
26977;SDS011;56314;48.088;11.642;2023-05-07T02:04:27;4.78;;;4.28;;
26977;SDS011;56314;48.088;11.642;2023-05-07T02:06:52;5.43;;;4.50;;
26977;SDS011;56314;48.088;11.642;2023-05-07T02:09:17;7.25;;;4.72;;
26977;SDS011;56314;48.088;11.642;2023-05-07T02:11:43;5.85;;;4.93;;
26977;SDS011;56314;48.088;11.642;2023-05-07T02:14:09;7.25;;;4.68;;
26977;SDS011;56314;48.088;11.642;2023-05-07T02:16:35;5.95;;;4.50;;
26977;SDS011;56314;48.088;11.642;2023-05-07T02:19:00;4.40;;;4.00;;
26977;SDS011;56314;48.088;11.642;2023-05-07T02:21:25;6.32;;;4.85;;
26977;SDS011;56314;48.088;11.642;2023-05-07T02:23:51;6.55;;;4.32;;
26977;SDS011;56314;48.088;11.642;2023-05-07T02:26:16;7.13;;;4.40;;
26977;SDS011;56314;48.088;11.642;2023-05-07T02:28:42;4.63;;;4.10;;
26977;SDS011;56314;48.088;11.642;2023-05-07T02:31:09;4.55;;;3.97;;
26977;SDS011;56314;48.088;11.642;2023-05-07T02:33:35;4.40;;;3.67;;
26977;SDS011;56314;48.088;11.642;2023-05-07T02:36:10;6.97;;;3.92;;
26977;SDS011;56314;48.088;11.642;2023-05-07T02:38:37;4.50;;;4.10;;
26977;SDS011;56314;48.088;11.642;2023-05-07T02:41:02;8.10;;;4.03;;
26977;SDS011;56314;48.088;11.642;2023-05-07T02:43:27;5.80;;;3.95;;
26977;SDS011;56314;48.088;11.642;2023-05-07T02:46:03;4.47;;;4.00;;
26977;SDS011;56314;48.088;11.642;2023-05-07T02:48:29;4.53;;;3.63;;
26977;SDS011;56314;48.088;11.642;2023-05-07T02:50:55;6.00;;;4.43;;
26977;SDS011;56314;48.088;11.642;2023-05-07T02:53:20;5.13;;;3.65;;
26977;SDS011;56314;48.088;11.642;2023-05-07T02:55:45;3.80;;;3.40;;
26977;SDS011;56314;48.088;11.642;2023-05-07T02:58:11;5.85;;;4.10;;
26977;SDS011;56314;48.088;11.642;2023-05-07T03:00:36;4.43;;;4.03;;
26977;SDS011;56314;48.088;11.642;2023-05-07T03:03:02;3.97;;;3.58;;
26977;SDS011;56314;48.088;11.642;2023-05-07T03:05:27;5.25;;;3.78;;
26977;SDS011;56314;48.088;11.642;2023-05-07T03:07:52;7.45;;;3.92;;
26977;SDS011;56314;48.088;11.642;2023-05-07T03:10:18;4.45;;;4.05;;
26977;SDS011;56314;48.088;11.642;2023-05-07T03:12:43;4.70;;;3.88;;
26977;SDS011;56314;48.088;11.642;2023-05-07T03:15:09;5.22;;;3.90;;
26977;SDS011;56314;48.088;11.642;2023-05-07T03:17:36;3.95;;;3.53;;
26977;SDS011;56314;48.088;11.642;2023-05-07T03:20:01;4.05;;;3.65;;
26977;SDS011;56314;48.088;11.642;2023-05-07T03:22:27;4.22;;;3.70;;
26977;SDS011;56314;48.088;11.642;2023-05-07T03:24:52;5.43;;;4.15;;
26977;SDS011;56314;48.088;11.642;2023-05-07T03:27:18;6.15;;;3.92;;
26977;SDS011;56314;48.088;11.642;2023-05-07T03:29:43;5.68;;;4.47;;
26977;SDS011;56314;48.088;11.642;2023-05-07T03:32:08;5.60;;;3.75;;
26977;SDS011;56314;48.088;11.642;2023-05-07T03:34:34;3.60;;;3.25;;
26977;SDS011;56314;48.088;11.642;2023-05-07T03:36:59;4.53;;;3.30;;
26977;SDS011;56314;48.088;11.642;2023-05-07T03:39:25;4.82;;;2.80;;
26977;SDS011;56314;48.088;11.642;2023-05-07T03:41:50;5.65;;;4.07;;
26977;SDS011;56314;48.088;11.642;2023-05-07T03:44:15;4.13;;;3.20;;
26977;SDS011;56314;48.088;11.642;2023-05-07T03:46:41;4.85;;;3.53;;
26977;SDS011;56314;48.088;11.642;2023-05-07T03:49:06;4.10;;;3.70;;
26977;SDS011;56314;48.088;11.642;2023-05-07T03:51:31;4.38;;;3.28;;
26977;SDS011;56314;48.088;11.642;2023-05-07T03:53:57;4.05;;;3.65;;
26977;SDS011;56314;48.088;11.642;2023-05-07T03:56:22;3.90;;;3.50;;
26977;SDS011;56314;48.088;11.642;2023-05-07T03:58:51;3.80;;;3.50;;
26977;SDS011;56314;48.088;11.642;2023-05-07T04:01:16;4.10;;;3.50;;
26977;SDS011;56314;48.088;11.642;2023-05-07T04:03:42;3.63;;;3.28;;
26977;SDS011;56314;48.088;11.642;2023-05-07T04:06:07;4.03;;;3.70;;
26977;SDS011;56314;48.088;11.642;2023-05-07T04:08:32;5.05;;;3.83;;
26977;SDS011;56314;48.088;11.642;2023-05-07T04:10:58;3.88;;;3.58;;
26977;SDS011;56314;48.088;11.642;2023-05-07T04:13:24;3.97;;;3.42;;
26977;SDS011;56314;48.088;11.642;2023-05-07T04:15:50;4.72;;;3.80;;
26977;SDS011;56314;48.088;11.642;2023-05-07T04:18:16;4.30;;;3.35;;
26977;SDS011;56314;48.088;11.642;2023-05-07T04:20:41;4.20;;;2.88;;
26977;SDS011;56314;48.088;11.642;2023-05-07T04:23:07;3.55;;;3.25;;
26977;SDS011;56314;48.088;11.642;2023-05-07T04:25:33;5.55;;;3.60;;
26977;SDS011;56314;48.088;11.642;2023-05-07T04:27:58;3.63;;;3.03;;
26977;SDS011;56314;48.088;11.642;2023-05-07T04:30:26;3.40;;;3.10;;
26977;SDS011;56314;48.088;11.642;2023-05-07T04:32:51;3.88;;;3.25;;
26977;SDS011;56314;48.088;11.642;2023-05-07T04:35:17;3.97;;;3.60;;
26977;SDS011;56314;48.088;11.642;2023-05-07T04:37:43;3.40;;;2.97;;
26977;SDS011;56314;48.088;11.642;2023-05-07T04:40:08;5.72;;;3.65;;
26977;SDS011;56314;48.088;11.642;2023-05-07T04:42:36;4.63;;;3.30;;
26977;SDS011;56314;48.088;11.642;2023-05-07T04:45:01;2.97;;;2.67;;
26977;SDS011;56314;48.088;11.642;2023-05-07T04:47:27;3.72;;;3.42;;
26977;SDS011;56314;48.088;11.642;2023-05-07T04:49:52;3.55;;;3.25;;
26977;SDS011;56314;48.088;11.642;2023-05-07T04:52:18;5.25;;;3.30;;
26977;SDS011;56314;48.088;11.642;2023-05-07T04:54:43;4.28;;;2.65;;
26977;SDS011;56314;48.088;11.642;2023-05-07T04:57:08;3.40;;;3.10;;
26977;SDS011;56314;48.088;11.642;2023-05-07T04:59:34;5.68;;;2.92;;
26977;SDS011;56314;48.088;11.642;2023-05-07T05:01:59;3.67;;;3.30;;
26977;SDS011;56314;48.088;11.642;2023-05-07T05:04:25;2.83;;;2.55;;
26977;SDS011;56314;48.088;11.642;2023-05-07T05:06:50;3.38;;;3.08;;
26977;SDS011;56314;48.088;11.642;2023-05-07T05:09:16;3.00;;;2.70;;
26977;SDS011;56314;48.088;11.642;2023-05-07T05:11:44;3.10;;;2.80;;
26977;SDS011;56314;48.088;11.642;2023-05-07T05:14:09;3.25;;;2.95;;
26977;SDS011;56314;48.088;11.642;2023-05-07T05:16:35;3.83;;;3.03;;
26977;SDS011;56314;48.088;11.642;2023-05-07T05:19:01;3.47;;;3.17;;
26977;SDS011;56314;48.088;11.642;2023-05-07T05:21:27;3.20;;;2.83;;
26977;SDS011;56314;48.088;11.642;2023-05-07T05:23:52;2.97;;;2.70;;
26977;SDS011;56314;48.088;11.642;2023-05-07T05:26:18;3.30;;;3.08;;
26977;SDS011;56314;48.088;11.642;2023-05-07T05:28:43;4.03;;;3.38;;
26977;SDS011;56314;48.088;11.642;2023-05-07T05:31:09;3.22;;;2.88;;
26977;SDS011;56314;48.088;11.642;2023-05-07T05:33:35;3.75;;;2.85;;
26977;SDS011;56314;48.088;11.642;2023-05-07T05:36:00;3.65;;;2.78;;
26977;SDS011;56314;48.088;11.642;2023-05-07T05:38:26;3.13;;;2.33;;
26977;SDS011;56314;48.088;11.642;2023-05-07T05:40:51;2.65;;;2.40;;
26977;SDS011;56314;48.088;11.642;2023-05-07T05:43:16;2.47;;;2.25;;
26977;SDS011;56314;48.088;11.642;2023-05-07T05:45:42;3.17;;;2.58;;
26977;SDS011;56314;48.088;11.642;2023-05-07T05:48:07;3.03;;;2.60;;
26977;SDS011;56314;48.088;11.642;2023-05-07T05:50:33;3.55;;;2.33;;
26977;SDS011;56314;48.088;11.642;2023-05-07T05:53:00;2.53;;;2.33;;
26977;SDS011;56314;48.088;11.642;2023-05-07T05:55:26;3.47;;;2.67;;
26977;SDS011;56314;48.088;11.642;2023-05-07T05:57:51;2.70;;;2.50;;
26977;SDS011;56314;48.088;11.642;2023-05-07T06:00:17;2.05;;;1.95;;
26977;SDS011;56314;48.088;11.642;2023-05-07T06:02:42;2.28;;;2.10;;
26977;SDS011;56314;48.088;11.642;2023-05-07T06:05:08;2.00;;;1.90;;
26977;SDS011;56314;48.088;11.642;2023-05-07T06:07:34;2.50;;;2.30;;
26977;SDS011;56314;48.088;11.642;2023-05-07T06:09:59;2.70;;;2.47;;
26977;SDS011;56314;48.088;11.642;2023-05-07T06:12:26;2.55;;;2.35;;
26977;SDS011;56314;48.088;11.642;2023-05-07T06:14:51;2.50;;;2.30;;
26977;SDS011;56314;48.088;11.642;2023-05-07T06:17:17;2.60;;;2.40;;
26977;SDS011;56314;48.088;11.642;2023-05-07T06:19:43;3.60;;;2.42;;
26977;SDS011;56314;48.088;11.642;2023-05-07T06:22:08;3.50;;;2.47;;
26977;SDS011;56314;48.088;11.642;2023-05-07T06:24:33;2.15;;;1.98;;
26977;SDS011;56314;48.088;11.642;2023-05-07T06:26:59;4.00;;;2.20;;
26977;SDS011;56314;48.088;11.642;2023-05-07T06:29:24;2.70;;;2.33;;
26977;SDS011;56314;48.088;11.642;2023-05-07T06:31:55;1.90;;;1.80;;
26977;SDS011;56314;48.088;11.642;2023-05-07T06:34:20;2.50;;;2.25;;
26977;SDS011;56314;48.088;11.642;2023-05-07T06:36:46;2.15;;;1.80;;
26977;SDS011;56314;48.088;11.642;2023-05-07T06:39:11;3.22;;;2.17;;
26977;SDS011;56314;48.088;11.642;2023-05-07T06:41:37;2.20;;;2.00;;
26977;SDS011;56314;48.088;11.642;2023-05-07T06:44:02;1.90;;;1.80;;
26977;SDS011;56314;48.088;11.642;2023-05-07T06:46:28;2.45;;;1.90;;
26977;SDS011;56314;48.088;11.642;2023-05-07T06:48:54;3.05;;;2.20;;
26977;SDS011;56314;48.088;11.642;2023-05-07T06:51:19;2.40;;;2.20;;
26977;SDS011;56314;48.088;11.642;2023-05-07T06:53:45;2.00;;;1.90;;
26977;SDS011;56314;48.088;11.642;2023-05-07T06:56:10;1.80;;;1.70;;
26977;SDS011;56314;48.088;11.642;2023-05-07T06:58:36;1.70;;;1.60;;
26977;SDS011;56314;48.088;11.642;2023-05-07T07:01:02;3.15;;;1.88;;
26977;SDS011;56314;48.088;11.642;2023-05-07T07:03:27;2.30;;;2.10;;
26977;SDS011;56314;48.088;11.642;2023-05-07T07:05:53;3.25;;;1.92;;
26977;SDS011;56314;48.088;11.642;2023-05-07T07:08:19;2.22;;;2.03;;
26977;SDS011;56314;48.088;11.642;2023-05-07T07:10:46;3.15;;;2.20;;
26977;SDS011;56314;48.088;11.642;2023-05-07T07:13:12;2.30;;;2.10;;
26977;SDS011;56314;48.088;11.642;2023-05-07T07:15:37;2.08;;;1.80;;
26977;SDS011;56314;48.088;11.642;2023-05-07T07:18:03;2.90;;;1.88;;
26977;SDS011;56314;48.088;11.642;2023-05-07T07:20:28;2.15;;;1.95;;
26977;SDS011;56314;48.088;11.642;2023-05-07T07:22:54;2.13;;;1.88;;
26977;SDS011;56314;48.088;11.642;2023-05-07T07:25:19;1.80;;;1.70;;
26977;SDS011;56314;48.088;11.642;2023-05-07T07:27:45;2.85;;;1.92;;
26977;SDS011;56314;48.088;11.642;2023-05-07T07:30:10;1.63;;;1.52;;
26977;SDS011;56314;48.088;11.642;2023-05-07T07:32:35;1.70;;;1.60;;
26977;SDS011;56314;48.088;11.642;2023-05-07T07:35:01;1.77;;;1.65;;
26977;SDS011;56314;48.088;11.642;2023-05-07T07:37:27;2.47;;;1.70;;
26977;SDS011;56314;48.088;11.642;2023-05-07T07:39:52;3.65;;;1.70;;
26977;SDS011;56314;48.088;11.642;2023-05-07T07:42:18;2.33;;;1.90;;
26977;SDS011;56314;48.088;11.642;2023-05-07T07:44:43;1.80;;;1.70;;
26977;SDS011;56314;48.088;11.642;2023-05-07T07:47:09;3.45;;;1.63;;
26977;SDS011;56314;48.088;11.642;2023-05-07T07:49:34;1.90;;;1.80;;
26977;SDS011;56314;48.088;11.642;2023-05-07T07:52:00;1.92;;;1.83;;
26977;SDS011;56314;48.088;11.642;2023-05-07T07:54:25;3.17;;;1.80;;
26977;SDS011;56314;48.088;11.642;2023-05-07T07:56:51;4.93;;;2.00;;
26977;SDS011;56314;48.088;11.642;2023-05-07T07:59:20;1.90;;;1.80;;
26977;SDS011;56314;48.088;11.642;2023-05-07T08:01:45;2.08;;;1.67;;
26977;SDS011;56314;48.088;11.642;2023-05-07T08:04:10;2.10;;;1.80;;
26977;SDS011;56314;48.088;11.642;2023-05-07T08:06:36;1.77;;;1.65;;
26977;SDS011;56314;48.088;11.642;2023-05-07T08:09:01;5.60;;;1.60;;
26977;SDS011;56314;48.088;11.642;2023-05-07T08:11:27;1.77;;;1.67;;
26977;SDS011;56314;48.088;11.642;2023-05-07T08:13:53;1.90;;;1.70;;
26977;SDS011;56314;48.088;11.642;2023-05-07T08:16:19;1.75;;;1.65;;
26977;SDS011;56314;48.088;11.642;2023-05-07T08:18:44;2.22;;;1.67;;
26977;SDS011;56314;48.088;11.642;2023-05-07T08:21:10;1.75;;;1.65;;
26977;SDS011;56314;48.088;11.642;2023-05-07T08:23:35;1.50;;;1.40;;
26977;SDS011;56314;48.088;11.642;2023-05-07T08:26:01;3.08;;;1.80;;
26977;SDS011;56314;48.088;11.642;2023-05-07T08:28:26;2.95;;;1.48;;
26977;SDS011;56314;48.088;11.642;2023-05-07T08:30:52;2.47;;;1.83;;
26977;SDS011;56314;48.088;11.642;2023-05-07T08:33:17;1.50;;;1.40;;
26977;SDS011;56314;48.088;11.642;2023-05-07T08:35:42;1.70;;;1.60;;
26977;SDS011;56314;48.088;11.642;2023-05-07T08:38:08;1.90;;;1.75;;
26977;SDS011;56314;48.088;11.642;2023-05-07T08:40:35;1.70;;;1.60;;
26977;SDS011;56314;48.088;11.642;2023-05-07T08:43:02;1.55;;;1.45;;
26977;SDS011;56314;48.088;11.642;2023-05-07T08:45:30;2.10;;;1.90;;
26977;SDS011;56314;48.088;11.642;2023-05-07T08:48:05;2.05;;;1.85;;
26977;SDS011;56314;48.088;11.642;2023-05-07T08:50:37;2.08;;;1.90;;
26977;SDS011;56314;48.088;11.642;2023-05-07T08:53:03;2.20;;;1.80;;
26977;SDS011;56314;48.088;11.642;2023-05-07T08:55:29;2.10;;;1.90;;
26977;SDS011;56314;48.088;11.642;2023-05-07T08:57:55;2.17;;;1.92;;
26977;SDS011;56314;48.088;11.642;2023-05-07T09:00:20;1.65;;;1.55;;
26977;SDS011;56314;48.088;11.642;2023-05-07T09:02:46;1.65;;;1.55;;
26977;SDS011;56314;48.088;11.642;2023-05-07T09:05:11;1.70;;;1.60;;
26977;SDS011;56314;48.088;11.642;2023-05-07T09:07:36;3.45;;;1.88;;
26977;SDS011;56314;48.088;11.642;2023-05-07T09:10:02;2.35;;;1.70;;
26977;SDS011;56314;48.088;11.642;2023-05-07T09:12:29;1.50;;;1.40;;
26977;SDS011;56314;48.088;11.642;2023-05-07T09:14:54;2.85;;;2.00;;
26977;SDS011;56314;48.088;11.642;2023-05-07T09:17:20;2.17;;;1.77;;
26977;SDS011;56314;48.088;11.642;2023-05-07T09:19:45;2.15;;;1.65;;
26977;SDS011;56314;48.088;11.642;2023-05-07T09:22:11;2.72;;;1.70;;
26977;SDS011;56314;48.088;11.642;2023-05-07T09:24:37;1.70;;;1.60;;
26977;SDS011;56314;48.088;11.642;2023-05-07T09:27:06;1.80;;;1.42;;
26977;SDS011;56314;48.088;11.642;2023-05-07T09:29:33;1.58;;;1.48;;
26977;SDS011;56314;48.088;11.642;2023-05-07T09:32:03;1.60;;;1.50;;
26977;SDS011;56314;48.088;11.642;2023-05-07T09:34:29;1.70;;;1.60;;
26977;SDS011;56314;48.088;11.642;2023-05-07T09:36:55;2.05;;;1.73;;
26977;SDS011;56314;48.088;11.642;2023-05-07T09:39:21;2.88;;;1.77;;
26977;SDS011;56314;48.088;11.642;2023-05-07T09:41:48;1.52;;;1.40;;
26977;SDS011;56314;48.088;11.642;2023-05-07T09:44:19;2.78;;;1.67;;
26977;SDS011;56314;48.088;11.642;2023-05-07T09:46:45;2.85;;;1.50;;
26977;SDS011;56314;48.088;11.642;2023-05-07T09:49:19;1.98;;;1.77;;
26977;SDS011;56314;48.088;11.642;2023-05-07T09:51:50;1.90;;;1.65;;
26977;SDS011;56314;48.088;11.642;2023-05-07T09:54:17;1.65;;;1.30;;
26977;SDS011;56314;48.088;11.642;2023-05-07T09:56:44;1.58;;;1.45;;
26977;SDS011;56314;48.088;11.642;2023-05-07T09:59:13;2.22;;;1.50;;
26977;SDS011;56314;48.088;11.642;2023-05-07T10:01:41;1.90;;;1.65;;
26977;SDS011;56314;48.088;11.642;2023-05-07T10:04:07;2.65;;;1.65;;
26977;SDS011;56314;48.088;11.642;2023-05-07T10:06:36;3.75;;;1.70;;
26977;SDS011;56314;48.088;11.642;2023-05-07T10:09:02;2.72;;;1.77;;
26977;SDS011;56314;48.088;11.642;2023-05-07T10:11:31;1.67;;;1.42;;
26977;SDS011;56314;48.088;11.642;2023-05-07T10:13:58;1.60;;;1.50;;
26977;SDS011;56314;48.088;11.642;2023-05-07T10:16:24;1.70;;;1.52;;
26977;SDS011;56314;48.088;11.642;2023-05-07T10:18:50;2.75;;;1.55;;
26977;SDS011;56314;48.088;11.642;2023-05-07T10:21:20;1.80;;;1.70;;
26977;SDS011;56314;48.088;11.642;2023-05-07T10:23:53;1.80;;;1.70;;
26977;SDS011;56314;48.088;11.642;2023-05-07T10:26:23;1.80;;;1.70;;
26977;SDS011;56314;48.088;11.642;2023-05-07T10:28:54;1.95;;;1.85;;
26977;SDS011;56314;48.088;11.642;2023-05-07T10:34:16;2.58;;;1.80;;
26977;SDS011;56314;48.088;11.642;2023-05-07T10:36:46;4.85;;;2.30;;
26977;SDS011;56314;48.088;11.642;2023-05-07T10:39:12;2.72;;;1.58;;
26977;SDS011;56314;48.088;11.642;2023-05-07T10:41:38;2.67;;;1.90;;
26977;SDS011;56314;48.088;11.642;2023-05-07T10:44:06;2.25;;;1.40;;
26977;SDS011;56314;48.088;11.642;2023-05-07T10:46:32;1.98;;;1.60;;
26977;SDS011;56314;48.088;11.642;2023-05-07T10:51:28;1.50;;;1.40;;
26977;SDS011;56314;48.088;11.642;2023-05-07T10:56:42;1.60;;;1.50;;
26977;SDS011;56314;48.088;11.642;2023-05-07T11:01:58;1.42;;;1.33;;
26977;SDS011;56314;48.088;11.642;2023-05-07T11:04:27;2.92;;;1.73;;
26977;SDS011;56314;48.088;11.642;2023-05-07T11:15:07;1.50;;;1.40;;
26977;SDS011;56314;48.088;11.642;2023-05-07T11:17:55;2.00;;;1.45;;
26977;SDS011;56314;48.088;11.642;2023-05-07T11:26:06;2.33;;;1.17;;
26977;SDS011;56314;48.088;11.642;2023-05-07T11:28:36;3.95;;;2.95;;
26977;SDS011;56314;48.088;11.642;2023-05-07T11:31:03;1.67;;;1.35;;
26977;SDS011;56314;48.088;11.642;2023-05-07T11:33:29;1.70;;;1.60;;
26977;SDS011;56314;48.088;11.642;2023-05-07T11:35:55;1.52;;;1.40;;
26977;SDS011;56314;48.088;11.642;2023-05-07T11:38:21;4.70;;;1.80;;
26977;SDS011;56314;48.088;11.642;2023-05-07T11:43:15;1.85;;;1.63;;
26977;SDS011;56314;48.088;11.642;2023-05-07T11:45:41;2.65;;;1.92;;
26977;SDS011;56314;48.088;11.642;2023-05-07T11:48:06;1.98;;;1.73;;
26977;SDS011;56314;48.088;11.642;2023-05-07T11:50:31;2.58;;;1.50;;
26977;SDS011;56314;48.088;11.642;2023-05-07T11:52:57;2.78;;;1.50;;
26977;SDS011;56314;48.088;11.642;2023-05-07T11:55:23;1.83;;;1.60;;
26977;SDS011;56314;48.088;11.642;2023-05-07T11:57:49;2.20;;;1.75;;
26977;SDS011;56314;48.088;11.642;2023-05-07T12:00:15;1.60;;;1.50;;
26977;SDS011;56314;48.088;11.642;2023-05-07T12:02:45;2.42;;;2.17;;
26977;SDS011;56314;48.088;11.642;2023-05-07T12:05:10;1.83;;;1.50;;
26977;SDS011;56314;48.088;11.642;2023-05-07T12:07:35;3.35;;;2.10;;
26977;SDS011;56314;48.088;11.642;2023-05-07T12:10:07;3.10;;;1.67;;
26977;SDS011;56314;48.088;11.642;2023-05-07T12:12:45;2.13;;;1.92;;
26977;SDS011;56314;48.088;11.642;2023-05-07T12:15:13;2.40;;;1.92;;
26977;SDS011;56314;48.088;11.642;2023-05-07T12:17:40;2.00;;;1.80;;
26977;SDS011;56314;48.088;11.642;2023-05-07T12:20:06;3.08;;;2.55;;
26977;SDS011;56314;48.088;11.642;2023-05-07T12:22:32;2.30;;;1.83;;
26977;SDS011;56314;48.088;11.642;2023-05-07T12:24:58;2.10;;;2.00;;
26977;SDS011;56314;48.088;11.642;2023-05-07T12:27:23;1.85;;;1.70;;
26977;SDS011;56314;48.088;11.642;2023-05-07T12:29:50;3.67;;;1.90;;
26977;SDS011;56314;48.088;11.642;2023-05-07T12:32:19;1.83;;;1.73;;
26977;SDS011;56314;48.088;11.642;2023-05-07T12:34:46;3.05;;;2.38;;
26977;SDS011;56314;48.088;11.642;2023-05-07T12:37:14;1.73;;;1.63;;
26977;SDS011;56314;48.088;11.642;2023-05-07T12:39:50;2.90;;;2.03;;
26977;SDS011;56314;48.088;11.642;2023-05-07T12:42:32;1.90;;;1.80;;
26977;SDS011;56314;48.088;11.642;2023-05-07T12:45:11;2.65;;;2.25;;
26977;SDS011;56314;48.088;11.642;2023-05-07T12:47:37;2.30;;;2.10;;
26977;SDS011;56314;48.088;11.642;2023-05-07T12:50:04;2.22;;;2.03;;
26977;SDS011;56314;48.088;11.642;2023-05-07T12:52:31;2.25;;;2.05;;
26977;SDS011;56314;48.088;11.642;2023-05-07T12:54:56;2.50;;;2.10;;
26977;SDS011;56314;48.088;11.642;2023-05-07T12:57:29;2.30;;;2.10;;
26977;SDS011;56314;48.088;11.642;2023-05-07T12:59:57;2.90;;;1.92;;
26977;SDS011;56314;48.088;11.642;2023-05-07T13:02:31;3.63;;;2.00;;
26977;SDS011;56314;48.088;11.642;2023-05-07T13:04:57;4.00;;;2.38;;
26977;SDS011;56314;48.088;11.642;2023-05-07T13:07:24;3.30;;;2.15;;
26977;SDS011;56314;48.088;11.642;2023-05-07T13:09:50;2.78;;;2.40;;
26977;SDS011;56314;48.088;11.642;2023-05-07T13:12:15;2.45;;;2.10;;
26977;SDS011;56314;48.088;11.642;2023-05-07T13:14:40;3.05;;;1.95;;
26977;SDS011;56314;48.088;11.642;2023-05-07T13:17:06;3.08;;;2.35;;
26977;SDS011;56314;48.088;11.642;2023-05-07T13:19:33;4.13;;;2.40;;
26977;SDS011;56314;48.088;11.642;2023-05-07T13:21:58;2.40;;;2.20;;
26977;SDS011;56314;48.088;11.642;2023-05-07T13:24:24;3.00;;;2.15;;
26977;SDS011;56314;48.088;11.642;2023-05-07T13:26:49;3.20;;;2.10;;
26977;SDS011;56314;48.088;11.642;2023-05-07T13:29:15;2.70;;;1.90;;
26977;SDS011;56314;48.088;11.642;2023-05-07T13:31:40;4.20;;;2.10;;
26977;SDS011;56314;48.088;11.642;2023-05-07T13:34:08;2.65;;;2.03;;
26977;SDS011;56314;48.088;11.642;2023-05-07T13:36:34;1.92;;;1.83;;
26977;SDS011;56314;48.088;11.642;2023-05-07T13:39:02;2.10;;;1.90;;
26977;SDS011;56314;48.088;11.642;2023-05-07T13:41:28;1.98;;;1.52;;
26977;SDS011;56314;48.088;11.642;2023-05-07T13:43:54;1.90;;;1.80;;
26977;SDS011;56314;48.088;11.642;2023-05-07T13:46:20;2.00;;;1.88;;
26977;SDS011;56314;48.088;11.642;2023-05-07T13:48:46;1.80;;;1.70;;
26977;SDS011;56314;48.088;11.642;2023-05-07T13:51:12;1.75;;;1.65;;
26977;SDS011;56314;48.088;11.642;2023-05-07T13:53:37;1.92;;;1.60;;
26977;SDS011;56314;48.088;11.642;2023-05-07T13:56:03;1.85;;;1.52;;
26977;SDS011;56314;48.088;11.642;2023-05-07T13:58:29;2.65;;;2.38;;
26977;SDS011;56314;48.088;11.642;2023-05-07T14:00:55;3.85;;;1.80;;
26977;SDS011;56314;48.088;11.642;2023-05-07T14:03:20;2.67;;;2.00;;
26977;SDS011;56314;48.088;11.642;2023-05-07T14:05:45;2.40;;;1.75;;
26977;SDS011;56314;48.088;11.642;2023-05-07T14:08:11;3.13;;;2.60;;
26977;SDS011;56314;48.088;11.642;2023-05-07T14:10:38;2.65;;;2.03;;
26977;SDS011;56314;48.088;11.642;2023-05-07T14:13:04;2.30;;;1.73;;
26977;SDS011;56314;48.088;11.642;2023-05-07T14:15:29;1.85;;;1.73;;
26977;SDS011;56314;48.088;11.642;2023-05-07T14:17:55;1.90;;;1.70;;
26977;SDS011;56314;48.088;11.642;2023-05-07T14:20:22;1.58;;;1.48;;
26977;SDS011;56314;48.088;11.642;2023-05-07T14:22:47;3.38;;;1.95;;
26977;SDS011;56314;48.088;11.642;2023-05-07T14:25:13;3.38;;;2.03;;
26977;SDS011;56314;48.088;11.642;2023-05-07T14:27:38;2.70;;;1.92;;
26977;SDS011;56314;48.088;11.642;2023-05-07T14:30:04;1.77;;;1.65;;
26977;SDS011;56314;48.088;11.642;2023-05-07T14:32:30;1.60;;;1.50;;
26977;SDS011;56314;48.088;11.642;2023-05-07T14:34:55;3.72;;;1.65;;
26977;SDS011;56314;48.088;11.642;2023-05-07T14:37:20;1.80;;;1.70;;
26977;SDS011;56314;48.088;11.642;2023-05-07T14:39:46;2.60;;;1.70;;
26977;SDS011;56314;48.088;11.642;2023-05-07T14:42:11;1.73;;;1.63;;
26977;SDS011;56314;48.088;11.642;2023-05-07T14:44:37;2.53;;;1.83;;
26977;SDS011;56314;48.088;11.642;2023-05-07T14:47:05;2.28;;;1.88;;
26977;SDS011;56314;48.088;11.642;2023-05-07T14:49:30;1.58;;;1.48;;
26977;SDS011;56314;48.088;11.642;2023-05-07T14:51:57;2.08;;;1.63;;
26977;SDS011;56314;48.088;11.642;2023-05-07T14:54:24;1.92;;;1.70;;
26977;SDS011;56314;48.088;11.642;2023-05-07T14:56:49;2.25;;;1.73;;